EGLLTBPB

Guest
Details From EGLL - London Heathrow
To TBPB - Barbados - Grantley Adams Intl
Flight Number -
Tags Standard
Created
Modified
Stats Distance 3,646 nm / 6,752 km
Max Altitude 0 ft / 0 m
Waypoints 6
Social Downloads 7
Likes 0
Share VATSIM

Download

Looking for another format? Having issues loading an existing format? Contact us
Advertisement - Login to hide

Notes

None

Route

EGLL VLN75 GITUS BODNO R1362 TBPB

ID Type Via Altitude Latitude Longitude Leg Dist Tot Dist Heading (true) Name
O EGLL APT - 0 ft / 0 m 51.46477˚ -0.48695˚ - 0 nm - -
VLN75 FIX - 0 ft / 0 m 51.00988˚ -2.61350˚ 84 nm 84 nm 252° / 250° -
GITUS FIX - 0 ft / 0 m 50.33333˚ -5.70000˚ 124 nm 208 nm 252° / 250° -
BODNO FIX - 0 ft / 0 m 49.46222˚ -8.87187˚ 133 nm 342 nm 248° / 246° -
R1362 FIX - 0 ft / 0 m 13.07091˚ -59.50749˚ 3303 nm 3645 nm 247° / 218° -
O TBPB APT - 0 ft / 0 m 13.07091˚ -59.50749˚ 0 nm 3645 nm 0° / 180° -

Altitude Profile

Advertisement - Login to hide

Weather


0- 5 10 15 20 25 30 35+ Temperature / ° C

Clouds and Precipitation
Forecast for 2017-12-14 18:00 UTC. Updated 2 hours ago

Ground ~20,000 ft ~40,000 ft Winds

EGLL

Details ICAO EGLL (LHR)
Name London Heathrow
Region United Kingdom
Timezone Europe/London (UTC+0.0)
Stats Elevation 83 ft / 25 m (AMSL)
Location 51.471218° -0.460978°
Runways 2
Magnetic Variation 0.560° W

METAR

EGLL 141450Z AUTO 25015KT 9999 FEW024 06/01 Q0989

Decode

TAF

TAF EGLL 141101Z 1412/1518 23012KT 9999 SCT040 PROB30 TEMPO 1412/1415 25015G25KT 8000 - BECMG 1418/1421 BKN010 TEMPO 1503/1511 7000 SHRA BKN008 BECMG 1509/1512 33012KT PROB30 TEMPO 1512/1517 32015G25KT BECMG 1515/1518 BKN015

Decode

Departure Runways

ID Width Length Bearing (true) Bearing (mag) Surface Threshold Offset Overrun Length
09L 164 ft / 50 m 12,811 ft / 3,905 m 89.64° 90.20° Asphalt 1,004 ft / 306 m 0 ft / 0 m
09R 164 ft / 50 m 12,019 ft / 3,663 m 89.67° 90.23° Asphalt 1,007 ft / 307 m 0 ft / 0 m
27L 164 ft / 50 m 12,019 ft / 3,663 m 269.71° 270.27° Asphalt 0 ft / 0 m 69 ft / 21 m
27R 164 ft / 50 m 12,811 ft / 3,905 m 269.69° 270.25° Asphalt 0 ft / 0 m 69 ft / 21 m

TBPB

Details ICAO TBPB (BGI)
Name Barbados/Grantley Adams Intl
Region Barbados
Timezone America/Barbados (UTC-4.0)
Stats Elevation 168 ft / 51 m (AMSL)
Location 13.074614° -59.492206°
Runways 1
Magnetic Variation 15.612° W

METAR

TBPB 141500Z 10015KT 9999 FEW018 29/24 Q1016 NOSIG

Decode

TAF

Not found

Destination Runways

ID Width Length Bearing (true) Bearing (mag) Surface Threshold Offset Overrun Length
09 148 ft / 45 m 11,924 ft / 3,635 m 75.84° 91.45° Asphalt 0 ft / 0 m 174 ft / 53 m
27 148 ft / 45 m 11,924 ft / 3,635 m 255.85° 271.46° Asphalt 0 ft / 0 m 0 ft / 0 m

Approach Navaids

Runway Type Ident Frequency Range Bearing (true) Bearing (mag) Slope Elevation
09 Localiser IBGI 110.10 MHz 18 nm / 33 km 75.97° 91.59° - 168 ft / 51 m (AMSL)
09 Glidescope IBGI 110.10 MHz 10 nm / 19 km 75.85° 91.46° 3.00° 168 ft / 51 m (AMSL)

Popular Alternatives